createdAt,value
2023-01-27T00:01:31.896Z,101095.06
2023-01-27T00:04:04.926Z,101077.69
2023-01-27T00:06:40.800Z,101083.58
2023-01-27T00:09:14.099Z,101081.97
2023-01-27T00:12:06.344Z,101080.65
2023-01-27T00:14:38.704Z,101064.36
2023-01-27T00:17:11.112Z,101079.42
2023-01-27T00:19:44.781Z,101081.91
2023-01-27T00:22:34.560Z,101077.29
2023-01-27T00:25:07.871Z,101080.50
2023-01-27T00:27:40.695Z,101078.91
2023-01-27T00:30:14.909Z,101078.77
2023-01-27T00:33:05.306Z,101081.48
2023-01-27T00:35:37.602Z,101076.81
2023-01-27T00:38:10.120Z,101074.53
2023-01-27T00:41:02.961Z,101073.59
2023-01-27T00:43:35.302Z,101076.14
2023-01-27T00:46:08.213Z,101080.46
2023-01-27T00:48:40.845Z,101081.20
2023-01-27T00:51:13.820Z,101078.01
2023-01-27T00:53:47.191Z,101085.09
2023-01-27T00:56:19.895Z,101091.48
2023-01-27T00:58:53.356Z,101093.60
2023-01-27T01:01:27.419Z,101092.34
2023-01-27T01:04:01.428Z,101092.37
2023-01-27T01:06:34.277Z,101097.98
2023-01-27T01:09:06.733Z,101095.85
2023-01-27T01:11:39.461Z,101099.41
2023-01-27T01:14:11.815Z,101102.71
2023-01-27T01:16:44.741Z,101105.29
2023-01-27T01:19:17.418Z,101106.20
2023-01-27T01:21:49.826Z,101103.25
2023-01-27T01:24:22.822Z,101102.02
2023-01-27T01:26:55.257Z,101104.83
2023-01-27T01:29:27.841Z,101105.07
2023-01-27T01:32:00.843Z,101099.78
2023-01-27T01:34:34.684Z,101102.17
2023-01-27T01:37:07.184Z,101101.48
2023-01-27T01:39:40.408Z,101104.66
2023-01-27T01:42:13.014Z,101104.68
2023-01-27T01:44:47.430Z,101105.70
2023-01-27T01:47:21.137Z,101108.44
2023-01-27T01:49:53.598Z,101109.86
2023-01-27T01:52:26.339Z,101105.82
2023-01-27T01:54:59.147Z,101101.60
2023-01-27T01:57:37.681Z,101102.04
2023-01-27T02:00:13.111Z,101102.63
2023-01-27T02:02:51.397Z,101104.30
2023-01-27T02:08:30.603Z,101103.20
2023-01-27T02:11:04.260Z,101100.04
2023-01-27T02:13:36.707Z,101102.36
2023-01-27T02:16:11.377Z,101100.29
2023-01-27T02:18:42.731Z,101104.77
2023-01-27T02:21:15.756Z,101087.77
2023-01-27T02:23:58.934Z,101097.62
2023-01-27T02:26:34.766Z,101101.35
2023-01-27T02:29:09.389Z,101102.52
2023-01-27T02:31:42.669Z,101104.19
2023-01-27T02:34:18.801Z,101087.94
2023-01-27T02:36:56.585Z,101109.39
2023-01-27T02:39:34.107Z,101097.98
2023-01-27T02:42:08.394Z,101114.46
2023-01-27T02:44:41.116Z,101098.81
2023-01-27T02:47:13.639Z,101118.51
2023-01-27T02:49:49.603Z,101120.64
2023-01-27T02:52:23.258Z,101124.34
2023-01-27T02:54:55.999Z,101127.06
2023-01-27T02:57:28.507Z,101128.41
2023-01-27T03:00:18.773Z,101131.34
2023-01-27T03:02:51.310Z,101131.04
2023-01-27T03:05:24.078Z,101127.23
2023-01-27T03:07:56.556Z,101123.58
2023-01-27T03:10:28.927Z,101125.69
2023-01-27T03:13:03.808Z,101125.56
2023-01-27T03:15:54.484Z,101126.89
2023-01-27T03:18:27.734Z,101132.04
2023-01-27T03:21:04.727Z,101131.65
2023-01-27T03:23:37.302Z,101118.11
2023-01-27T03:26:11.331Z,101127.15
2023-01-27T03:29:05.776Z,101129.55
2023-01-27T03:31:39.117Z,101126.85
2023-01-27T03:34:11.837Z,101128.02
2023-01-27T03:37:11.112Z,101117.10
2023-01-27T03:40:01.921Z,101110.64
2023-01-27T03:42:52.875Z,101127.22
2023-01-27T03:45:43.847Z,101123.06
2023-01-27T03:48:18.586Z,101122.30
2023-01-27T03:50:53.992Z,101126.08
2023-01-27T03:53:24.856Z,101121.48
2023-01-27T03:55:57.237Z,101123.00
2023-01-27T03:58:31.583Z,101123.89
2023-01-27T04:01:05.519Z,101124.01
2023-01-27T04:03:56.262Z,101122.60
2023-01-27T04:06:48.544Z,101122.67
2023-01-27T04:09:24.827Z,101125.44
2023-01-27T04:12:02.075Z,101131.12
2023-01-27T04:14:37.894Z,101134.39
2023-01-27T04:17:12.820Z,101141.86
2023-01-27T04:19:46.237Z,101141.45
2023-01-27T04:22:19.525Z,101142.79
2023-01-27T04:24:52.342Z,101140.39
2023-01-27T04:27:24.680Z,101145.45
2023-01-27T04:29:57.050Z,101150.14
2023-01-27T04:32:30.782Z,101148.08
2023-01-27T04:35:03.310Z,101150.45
2023-01-27T04:37:35.794Z,101152.96
2023-01-27T04:40:11.250Z,101155.16
2023-01-27T04:42:44.407Z,101160.56
2023-01-27T04:45:20.372Z,101157.40
2023-01-27T04:47:52.778Z,101139.79
2023-01-27T04:50:25.213Z,101161.22
2023-01-27T04:52:58.255Z,101156.55
2023-01-27T04:55:32.560Z,101154.85
2023-01-27T04:58:05.030Z,101153.41
2023-01-27T05:00:37.775Z,101159.25
2023-01-27T05:03:10.640Z,101156.05
2023-01-27T05:05:45.550Z,101157.46
2023-01-27T05:08:18.689Z,101161.58
2023-01-27T05:10:52.719Z,101164.64
2023-01-27T05:13:25.942Z,101164.08
2023-01-27T05:16:12.564Z,101168.09
2023-01-27T05:18:46.485Z,101173.63
2023-01-27T05:21:23.382Z,101173.95
2023-01-27T05:23:55.774Z,101169.87
2023-01-27T05:26:29.420Z,101178.23
2023-01-27T05:29:02.025Z,101165.43
2023-01-27T05:31:34.645Z,101177.08
2023-01-27T05:34:07.661Z,101177.06
2023-01-27T05:36:39.983Z,101180.78
2023-01-27T05:39:14.068Z,101181.98
2023-01-27T05:41:45.803Z,101183.96
2023-01-27T05:44:18.276Z,101180.30
2023-01-27T05:46:50.743Z,101183.81
2023-01-27T05:49:23.300Z,101188.23
2023-01-27T05:51:55.722Z,101190.66
2023-01-27T05:54:28.208Z,101187.34
2023-01-27T05:57:00.695Z,101191.68
2023-01-27T05:59:33.099Z,101190.64
2023-01-27T06:02:05.621Z,101188.96
2023-01-27T06:04:38.457Z,101186.30
2023-01-27T06:07:10.985Z,101189.83
2023-01-27T06:09:44.208Z,101192.45
2023-01-27T06:12:19.746Z,101194.64
2023-01-27T06:14:53.522Z,101196.40
2023-01-27T06:17:25.958Z,101196.98
2023-01-27T06:19:58.306Z,101202.77
2023-01-27T06:22:30.956Z,101189.67
2023-01-27T06:25:03.431Z,101207.81
2023-01-27T06:27:35.818Z,101205.58
2023-01-27T06:30:09.901Z,101205.48
2023-01-27T06:32:42.389Z,101207.88
2023-01-27T06:35:15.428Z,101207.95
2023-01-27T06:37:50.152Z,101211.08
2023-01-27T06:40:22.955Z,101215.00
2023-01-27T06:42:56.073Z,101216.14
2023-01-27T06:45:28.896Z,101212.37
2023-01-27T06:48:05.527Z,101210.41
2023-01-27T06:50:38.189Z,101208.61
2023-01-27T06:53:10.603Z,101207.50
2023-01-27T06:55:43.912Z,101207.58
2023-01-27T06:58:17.374Z,101206.11
2023-01-27T07:00:49.773Z,101202.90
2023-01-27T07:03:22.429Z,101204.34
2023-01-27T07:05:55.359Z,101205.42
2023-01-27T07:08:28.044Z,101208.54
2023-01-27T07:11:03.382Z,101213.20
2023-01-27T07:13:36.199Z,101207.06
2023-01-27T07:16:09.241Z,101213.98
2023-01-27T07:18:41.681Z,101215.21
2023-01-27T07:21:14.022Z,101218.00
2023-01-27T07:23:46.551Z,101216.96
2023-01-27T07:26:24.850Z,101213.39
2023-01-27T07:28:58.799Z,101210.36
2023-01-27T07:31:31.390Z,101213.59
2023-01-27T07:34:03.869Z,101213.80
2023-01-27T07:36:36.392Z,101219.55
2023-01-27T07:39:09.015Z,101223.86
2023-01-27T07:41:41.506Z,101228.21
2023-01-27T07:44:17.454Z,101225.68
2023-01-27T07:46:50.609Z,101228.70
2023-01-27T07:49:23.098Z,101224.41
2023-01-27T07:51:55.519Z,101243.67
2023-01-27T07:54:27.916Z,101235.04
2023-01-27T07:57:02.547Z,101253.91
2023-01-27T07:59:33.359Z,101256.26
2023-01-27T08:02:05.651Z,101256.98
2023-01-27T08:04:52.202Z,101258.79
2023-01-27T08:07:25.534Z,101262.77
2023-01-27T08:09:57.865Z,101264.36
2023-01-27T08:12:30.454Z,101261.88
2023-01-27T08:15:03.240Z,101264.99
2023-01-27T08:17:35.822Z,101269.82
2023-01-27T08:20:10.163Z,101274.92
2023-01-27T08:22:42.752Z,101272.73
2023-01-27T08:25:15.148Z,101260.11
2023-01-27T08:27:49.987Z,101284.06
2023-01-27T08:30:23.633Z,101279.38
2023-01-27T08:32:56.519Z,101283.87
2023-01-27T08:35:29.113Z,101284.12
2023-01-27T08:38:01.561Z,101282.95
2023-01-27T08:40:34.111Z,101288.21
2023-01-27T08:43:06.551Z,101273.77
2023-01-27T08:45:39.934Z,101293.02
2023-01-27T08:48:12.455Z,101299.90
2023-01-27T08:50:45.592Z,101293.01
2023-01-27T08:53:17.915Z,101301.91
2023-01-27T08:55:50.584Z,101300.71
2023-01-27T08:58:23.166Z,101302.15
2023-01-27T09:00:56.218Z,101293.73
2023-01-27T09:03:28.815Z,101302.27
2023-01-27T09:06:01.829Z,101299.23
2023-01-27T09:08:34.259Z,101302.52
2023-01-27T09:11:14.339Z,101302.94
2023-01-27T09:13:47.115Z,101301.51
2023-01-27T09:16:20.257Z,101301.14
2023-01-27T09:18:52.605Z,101307.61
2023-01-27T09:21:27.862Z,101286.98
2023-01-27T09:24:00.289Z,101302.77
2023-01-27T09:26:32.948Z,101303.59
2023-01-27T09:29:05.299Z,101302.84
2023-01-27T09:31:37.812Z,101303.45
2023-01-27T09:34:10.286Z,101304.27
2023-01-27T09:36:47.637Z,101303.84
2023-01-27T09:39:21.954Z,101303.17
2023-01-27T09:42:08.979Z,101299.16
2023-01-27T09:44:58.264Z,101302.42
2023-01-27T09:47:50.845Z,101304.04
2023-01-27T09:50:38.631Z,101305.79
2023-01-27T09:53:42.151Z,101311.30
2023-01-27T09:56:23.931Z,101304.63
2023-01-27T09:59:14.058Z,101308.50
2023-01-27T10:01:54.843Z,101309.47
2023-01-27T10:04:44.274Z,101305.96
2023-01-27T10:07:36.421Z,101318.19
2023-01-27T10:10:23.434Z,101318.30
2023-01-27T10:13:10.333Z,101316.40
2023-01-27T10:15:58.505Z,101320.60
2023-01-27T10:18:55.466Z,101327.89
2023-01-27T10:21:37.858Z,101326.98
2023-01-27T10:24:24.148Z,101309.74
2023-01-27T10:27:01.898Z,101328.52
2023-01-27T10:29:40.434Z,101324.79
2023-01-27T10:32:23.700Z,101327.21
2023-01-27T10:35:10.040Z,101329.81
2023-01-27T10:37:53.979Z,101329.79
2023-01-27T10:40:37.434Z,101328.80
2023-01-27T10:43:16.701Z,101323.27
2023-01-27T10:45:57.214Z,101320.45
2023-01-27T10:48:43.618Z,101328.13
2023-01-27T10:51:20.821Z,101332.89
2023-01-27T10:53:58.640Z,101327.79
2023-01-27T10:56:38.713Z,101332.50
2023-01-27T10:59:18.211Z,101339.44
2023-01-27T11:01:54.575Z,101337.73
2023-01-27T11:04:36.432Z,101338.81
2023-01-27T11:07:16.303Z,101340.36
2023-01-27T11:09:57.125Z,101338.86
2023-01-27T11:12:34.779Z,101342.82
2023-01-27T11:15:20.519Z,101341.13
2023-01-27T11:17:59.452Z,101339.90
2023-01-27T11:20:35.706Z,101321.39
2023-01-27T11:23:16.715Z,101342.48
2023-01-27T11:25:56.769Z,101343.86
2023-01-27T11:28:38.829Z,101345.97
2023-01-27T11:31:20.352Z,101353.48
2023-01-27T11:33:59.374Z,101354.36
2023-01-27T11:36:34.292Z,101353.30
2023-01-27T11:39:07.591Z,101349.56
2023-01-27T11:41:42.571Z,101354.45
2023-01-27T11:44:22.332Z,101356.98
2023-01-27T11:46:56.540Z,101360.10
2023-01-27T11:49:31.676Z,101351.70
2023-01-27T11:52:13.640Z,101349.55
2023-01-27T11:54:51.789Z,101354.63
2023-01-27T11:57:27.562Z,101351.81
2023-01-27T12:00:07.430Z,101358.80
2023-01-27T12:02:44.879Z,101356.91
2023-01-27T12:05:22.947Z,101356.83
2023-01-27T12:08:00.286Z,101356.13
2023-01-27T12:10:35.853Z,101360.08
2023-01-27T12:13:17.720Z,101352.73
2023-01-27T12:15:53.888Z,101352.73
2023-01-27T12:18:26.278Z,101350.58
2023-01-27T12:21:04.126Z,101355.67
2023-01-27T12:23:41.455Z,101348.64
2023-01-27T12:26:15.272Z,101349.98
2023-01-27T12:28:53.862Z,101327.81
2023-01-27T12:31:31.147Z,101348.50
2023-01-27T12:34:07.296Z,101344.60
2023-01-27T12:36:43.655Z,101345.23
2023-01-27T12:39:31.742Z,101338.42
2023-01-27T12:42:04.104Z,101353.79
2023-01-27T12:44:46.314Z,101356.32
2023-01-27T12:47:26.633Z,101356.20
2023-01-27T12:50:21.692Z,101357.09
2023-01-27T12:53:04.456Z,101353.41
2023-01-27T12:55:40.383Z,101355.81
2023-01-27T12:58:35.214Z,101359.36
2023-01-27T13:01:19.757Z,101361.10
2023-01-27T13:03:56.144Z,101361.06
2023-01-27T13:06:36.413Z,101362.52
2023-01-27T13:09:20.625Z,101362.46
2023-01-27T13:11:53.663Z,101363.95
2023-01-27T13:14:29.341Z,101365.73
2023-01-27T13:17:03.018Z,101366.34
2023-01-27T13:19:44.620Z,101365.58
2023-01-27T13:22:23.293Z,101366.02
2023-01-27T13:25:02.039Z,101367.87
2023-01-27T13:27:40.904Z,101357.75
2023-01-27T13:30:22.644Z,101373.65
2023-01-27T13:33:00.093Z,101377.60
2023-01-27T13:35:38.893Z,101380.27
2023-01-27T13:38:20.220Z,101386.33
2023-01-27T13:40:52.636Z,101373.65
2023-01-27T13:43:30.775Z,101390.48
2023-01-27T13:46:15.607Z,101378.41
2023-01-27T13:48:53.594Z,101390.09
2023-01-27T13:51:30.148Z,101392.04
2023-01-27T13:54:05.273Z,101393.57
2023-01-27T13:56:50.448Z,101393.33
2023-01-27T13:59:38.777Z,101392.57
2023-01-27T14:02:36.377Z,101391.55
2023-01-27T14:05:26.176Z,101390.11
2023-01-27T14:08:09.143Z,101395.34
2023-01-27T14:10:52.261Z,101395.55
2023-01-27T14:13:40.936Z,101394.56
2023-01-27T14:16:20.044Z,101393.69
2023-01-27T14:18:59.425Z,101390.27
2023-01-27T14:21:41.216Z,101397.23
2023-01-27T14:24:25.979Z,101398.48
2023-01-27T14:27:05.886Z,101383.63
2023-01-27T14:29:46.356Z,101394.93
2023-01-27T14:32:28.877Z,101399.31
2023-01-27T14:35:17.736Z,101399.07
2023-01-27T14:38:00.167Z,101404.54
2023-01-27T14:40:39.332Z,101399.98
2023-01-27T14:43:24.294Z,101410.25
2023-01-27T14:46:05.073Z,101413.20
2023-01-27T14:48:51.901Z,101413.72
2023-01-27T14:51:33.236Z,101414.02
2023-01-27T14:54:26.601Z,101408.23
2023-01-27T14:57:26.819Z,101407.69
2023-01-27T15:00:08.490Z,101412.23
2023-01-27T15:02:49.354Z,101391.82
2023-01-27T15:05:29.952Z,101410.89
2023-01-27T15:08:11.328Z,101409.72
2023-01-27T15:10:54.929Z,101419.14
2023-01-27T15:13:56.453Z,101418.00
2023-01-27T15:16:37.972Z,101417.66
2023-01-27T15:19:31.838Z,101423.34
2023-01-27T15:22:31.390Z,101424.46
2023-01-27T15:25:19.426Z,101425.39
2023-01-27T15:27:55.595Z,101423.48
2023-01-27T15:30:29.898Z,101425.18
2023-01-27T15:33:03.000Z,101423.95
2023-01-27T15:35:38.681Z,101425.55
2023-01-27T15:38:35.766Z,101424.50
2023-01-27T15:41:16.210Z,101427.04
2023-01-27T15:44:16.440Z,101431.61
2023-01-27T15:46:50.809Z,101399.91
2023-01-27T15:49:26.310Z,101433.05
2023-01-27T15:52:12.004Z,101432.02
2023-01-27T15:54:51.642Z,101413.61
2023-01-27T15:57:34.159Z,101434.09
2023-01-27T16:00:10.618Z,101438.20
2023-01-27T16:02:53.495Z,101436.67
2023-01-27T16:05:29.797Z,101438.17
2023-01-27T16:08:05.389Z,101434.06
2023-01-27T16:10:38.585Z,101439.16
2023-01-27T16:13:25.355Z,101440.20
2023-01-27T16:16:30.841Z,101439.66
2023-01-27T16:19:18.322Z,101444.10
2023-01-27T16:21:57.723Z,101423.51
2023-01-27T16:24:36.344Z,101434.55
2023-01-27T16:27:19.555Z,101447.95
2023-01-27T16:29:59.513Z,101447.76
2023-01-27T16:32:39.079Z,101462.02
2023-01-27T16:35:21.305Z,101455.77
2023-01-27T16:38:24.061Z,101457.14
2023-01-27T16:40:58.653Z,101458.67
2023-01-27T16:43:33.886Z,101451.79
2023-01-27T16:46:07.144Z,101438.25
2023-01-27T16:48:44.652Z,101461.07
2023-01-27T16:51:21.739Z,101465.20
2023-01-27T16:53:58.848Z,101467.05
2023-01-27T16:56:35.222Z,101469.34
2023-01-27T16:59:11.612Z,101473.38
2023-01-27T17:01:48.120Z,101474.02
2023-01-27T17:04:24.161Z,101468.98
2023-01-27T17:07:00.270Z,101475.36
2023-01-27T17:09:35.672Z,101480.02
2023-01-27T17:12:26.630Z,101454.64
2023-01-27T17:15:00.440Z,101484.27
2023-01-27T17:17:36.372Z,101475.10
2023-01-27T17:20:21.269Z,101477.66
2023-01-27T17:22:56.132Z,101494.21
2023-01-27T17:25:39.337Z,101492.61
2023-01-27T17:28:18.848Z,101500.79
2023-01-27T17:30:51.971Z,101494.97
2023-01-27T17:33:25.044Z,101495.30
2023-01-27T17:36:02.122Z,101495.08
2023-01-27T17:38:45.261Z,101494.19
2023-01-27T17:41:34.963Z,101499.16
2023-01-27T17:44:14.658Z,101493.56
2023-01-27T17:46:47.506Z,101497.25
2023-01-27T17:49:21.093Z,101500.33
2023-01-27T17:51:55.837Z,101498.90
2023-01-27T17:54:32.614Z,101503.82
2023-01-27T17:57:10.075Z,101495.78
2023-01-27T17:59:47.528Z,101508.03
2023-01-27T18:02:26.744Z,101506.08
2023-01-27T18:05:04.853Z,101513.98
2023-01-27T18:07:37.594Z,101511.90
2023-01-27T18:10:26.543Z,101517.61
2023-01-27T18:13:12.680Z,101520.64
2023-01-27T18:15:51.449Z,101521.66
2023-01-27T18:18:27.015Z,101487.75
2023-01-27T18:21:18.840Z,101526.34
2023-01-27T18:23:55.692Z,101532.15
2023-01-27T18:26:32.076Z,101537.41
2023-01-27T18:29:08.390Z,101537.70
2023-01-27T18:31:49.250Z,101539.89
2023-01-27T18:34:29.809Z,101538.00
2023-01-27T18:37:06.262Z,101540.73
2023-01-27T18:39:41.169Z,101539.60
2023-01-27T18:42:17.985Z,101548.69
2023-01-27T18:44:53.117Z,101558.29
2023-01-27T18:47:37.079Z,101554.56
2023-01-27T18:50:21.897Z,101556.27
2023-01-27T18:52:55.427Z,101561.42
2023-01-27T18:55:30.496Z,101563.65
2023-01-27T18:58:06.330Z,101547.98
2023-01-27T19:00:43.454Z,101544.42
2023-01-27T19:03:19.472Z,101563.70
2023-01-27T19:05:52.659Z,101566.88
2023-01-27T19:08:26.677Z,101567.09
2023-01-27T19:11:01.667Z,101579.27
2023-01-27T19:13:34.695Z,101580.19
2023-01-27T19:16:11.123Z,101583.80
2023-01-27T19:18:45.834Z,101569.48
2023-01-27T19:21:19.292Z,101588.34
2023-01-27T19:23:51.972Z,101588.17
2023-01-27T19:26:26.366Z,101587.35
2023-01-27T19:28:59.800Z,101561.87
2023-01-27T19:31:32.922Z,101590.68
2023-01-27T19:34:06.871Z,101592.36
2023-01-27T19:36:44.332Z,101590.81
2023-01-27T19:39:20.117Z,101593.91
2023-01-27T19:41:53.124Z,101600.79
2023-01-27T19:44:25.833Z,101597.15
2023-01-27T19:46:58.775Z,101599.73
2023-01-27T19:49:31.350Z,101607.05
2023-01-27T19:52:04.587Z,101605.48
2023-01-27T19:54:37.551Z,101600.67
2023-01-27T19:57:16.674Z,101598.98
2023-01-27T19:59:50.697Z,101606.13
2023-01-27T20:02:23.761Z,101604.37
2023-01-27T20:04:57.578Z,101605.02
2023-01-27T20:07:30.998Z,101608.68
2023-01-27T20:10:04.041Z,101606.36
2023-01-27T20:12:38.110Z,101612.55
2023-01-27T20:15:18.295Z,101613.90
2023-01-27T20:17:51.822Z,101616.23
2023-01-27T20:20:26.085Z,101601.76
2023-01-27T20:22:59.424Z,101617.27
2023-01-27T20:25:32.432Z,101611.45
2023-01-27T20:28:05.279Z,101611.38
2023-01-27T20:30:38.853Z,101610.30
2023-01-27T20:33:14.731Z,101611.59
2023-01-27T20:35:47.638Z,101615.91
2023-01-27T20:38:20.699Z,101603.55
2023-01-27T20:40:53.711Z,101615.40
2023-01-27T20:43:35.187Z,101615.50
2023-01-27T20:46:10.656Z,101611.83
2023-01-27T20:48:43.991Z,101614.73
2023-01-27T20:51:18.105Z,101615.52
2023-01-27T20:53:50.811Z,101617.55
2023-01-27T20:56:25.038Z,101616.80
2023-01-27T20:58:57.829Z,101616.52
2023-01-27T21:01:30.628Z,101617.64
2023-01-27T21:04:03.882Z,101615.80
2023-01-27T21:06:36.642Z,101583.29
2023-01-27T21:09:33.834Z,101602.36
2023-01-27T21:12:06.935Z,101616.84
2023-01-27T21:14:40.193Z,101620.16
2023-01-27T21:17:13.116Z,101619.91
2023-01-27T21:19:46.131Z,101618.00
2023-01-27T21:22:18.831Z,101618.41
2023-01-27T21:24:53.594Z,101619.27
2023-01-27T21:27:27.931Z,101619.11
2023-01-27T21:30:01.436Z,101624.27
2023-01-27T21:32:34.676Z,101629.05
2023-01-27T21:35:08.896Z,101618.92
2023-01-27T21:37:43.168Z,101619.70
2023-01-27T21:40:16.460Z,101618.59
2023-01-27T21:43:06.787Z,101619.80
2023-01-27T21:45:39.450Z,101616.72
2023-01-27T21:48:12.064Z,101608.95
2023-01-27T21:50:44.904Z,101619.14
2023-01-27T21:53:17.310Z,101617.55
2023-01-27T21:55:50.097Z,101619.08
2023-01-27T21:58:23.130Z,101615.66
2023-01-27T22:00:55.677Z,101602.23
2023-01-27T22:03:31.243Z,101613.25
2023-01-27T22:06:07.108Z,101619.95
2023-01-27T22:08:40.122Z,101617.46
2023-01-27T22:11:15.961Z,101617.32
2023-01-27T22:13:50.997Z,101614.71
2023-01-27T22:16:26.129Z,101595.23
2023-01-27T22:18:59.334Z,101590.81
2023-01-27T22:21:32.954Z,101610.17
2023-01-27T22:24:06.297Z,101611.77
2023-01-27T22:26:41.055Z,101594.36
2023-01-27T22:29:15.166Z,101619.03
2023-01-27T22:31:48.834Z,101594.58
2023-01-27T22:34:21.417Z,101613.76
2023-01-27T22:36:54.048Z,101610.14
2023-01-27T22:39:26.543Z,101613.85
2023-01-27T22:41:58.930Z,101614.88
2023-01-27T22:44:31.467Z,101618.33
2023-01-27T22:47:04.083Z,101600.46
2023-01-27T22:49:36.826Z,101620.51
2023-01-27T22:52:09.484Z,101618.41
2023-01-27T22:54:42.317Z,101620.92
2023-01-27T22:57:17.039Z,101623.70
2023-01-27T22:59:47.796Z,101615.06
2023-01-27T23:02:21.432Z,101614.55
2023-01-27T23:04:54.285Z,101610.58
2023-01-27T23:07:27.923Z,101610.05
2023-01-27T23:10:00.362Z,101611.42
2023-01-27T23:12:33.035Z,101615.17
2023-01-27T23:15:06.818Z,101614.39
2023-01-27T23:17:39.458Z,101609.88
2023-01-27T23:20:15.693Z,101590.20
2023-01-27T23:22:48.686Z,101591.83
2023-01-27T23:25:22.455Z,101606.05
2023-01-27T23:27:55.942Z,101604.80
2023-01-27T23:30:28.670Z,101598.17
2023-01-27T23:33:01.160Z,101582.55
2023-01-27T23:35:33.708Z,101592.88
2023-01-27T23:38:14.053Z,101587.88
2023-01-27T23:40:54.426Z,101588.14
2023-01-27T23:43:26.812Z,101586.62
2023-01-27T23:45:59.711Z,101586.24
2023-01-27T23:48:32.329Z,101581.15
2023-01-27T23:51:10.959Z,101595.52
2023-01-27T23:53:43.721Z,101586.79
2023-01-27T23:56:17.767Z,101592.86
2023-01-27T23:58:50.483Z,101591.02
